sensor_id;sensor_type;location;lat;lon;timestamp;P1;durP1;ratioP1;P2;durP2;ratioP2
49582;SDS011;36329;48.816;44.624;2023-07-29T00:01:33;5.3;;;1.7;;
49582;SDS011;36329;48.816;44.624;2023-07-29T00:04:36;5.1;;;1.8;;
49582;SDS011;36329;48.816;44.624;2023-07-29T00:07:38;4.9;;;1.6;;
49582;SDS011;36329;48.816;44.624;2023-07-29T00:10:40;5.1;;;1.5;;
49582;SDS011;36329;48.816;44.624;2023-07-29T00:13:41;4.2;;;1.9;;
49582;SDS011;36329;48.816;44.624;2023-07-29T00:16:43;3.3;;;1.5;;
49582;SDS011;36329;48.816;44.624;2023-07-29T00:19:45;4.6;;;1.3;;
49582;SDS011;36329;48.816;44.624;2023-07-29T00:22:47;3.8;;;1.3;;
49582;SDS011;36329;48.816;44.624;2023-07-29T00:25:49;3.6;;;1.5;;
49582;SDS011;36329;48.816;44.624;2023-07-29T00:28:51;3.9;;;1.4;;
49582;SDS011;36329;48.816;44.624;2023-07-29T00:31:53;5.7;;;1.5;;
49582;SDS011;36329;48.816;44.624;2023-07-29T00:34:56;3.7;;;1.2;;
49582;SDS011;36329;48.816;44.624;2023-07-29T00:37:58;2.6;;;1.3;;
49582;SDS011;36329;48.816;44.624;2023-07-29T00:41:00;5;;;1.4;;
49582;SDS011;36329;48.816;44.624;2023-07-29T00:44:03;4.2;;;1.4;;
49582;SDS011;36329;48.816;44.624;2023-07-29T00:47:06;2.9;;;1.2;;
49582;SDS011;36329;48.816;44.624;2023-07-29T00:50:09;3.3;;;1.3;;
49582;SDS011;36329;48.816;44.624;2023-07-29T00:53:14;2.6;;;1.1;;
49582;SDS011;36329;48.816;44.624;2023-07-29T00:56:16;4.6;;;1.2;;
49582;SDS011;36329;48.816;44.624;2023-07-29T00:59:18;4;;;1.2;;
49582;SDS011;36329;48.816;44.624;2023-07-29T01:02:20;4;;;1;;
49582;SDS011;36329;48.816;44.624;2023-07-29T01:05:22;3.3;;;0.9;;
49582;SDS011;36329;48.816;44.624;2023-07-29T01:08:35;4.2;;;1.3;;
49582;SDS011;36329;48.816;44.624;2023-07-29T01:11:45;2.7;;;1.2;;
49582;SDS011;36329;48.816;44.624;2023-07-29T01:14:58;2.6;;;1.7;;
49582;SDS011;36329;48.816;44.624;2023-07-29T01:18:08;5.6;;;1.9;;
49582;SDS011;36329;48.816;44.624;2023-07-29T01:21:13;5.5;;;2.7;;
49582;SDS011;36329;48.816;44.624;2023-07-29T01:24:17;7.8;;;3.2;;
49582;SDS011;36329;48.816;44.624;2023-07-29T01:27:19;8.2;;;3;;
49582;SDS011;36329;48.816;44.624;2023-07-29T01:30:21;4.8;;;2.8;;
49582;SDS011;36329;48.816;44.624;2023-07-29T01:33:38;4.8;;;1.9;;
49582;SDS011;36329;48.816;44.624;2023-07-29T01:36:44;3.6;;;1.4;;
49582;SDS011;36329;48.816;44.624;2023-07-29T01:39:47;3.8;;;1.7;;
49582;SDS011;36329;48.816;44.624;2023-07-29T01:42:52;3.3;;;1.3;;
49582;SDS011;36329;48.816;44.624;2023-07-29T01:45:54;5.3;;;1.5;;
49582;SDS011;36329;48.816;44.624;2023-07-29T01:48:57;3.9;;;1.5;;
49582;SDS011;36329;48.816;44.624;2023-07-29T01:51:59;6.6;;;1.5;;
49582;SDS011;36329;48.816;44.624;2023-07-29T01:55:01;6.6;;;1.8;;
49582;SDS011;36329;48.816;44.624;2023-07-29T01:58:05;4.1;;;1.8;;
49582;SDS011;36329;48.816;44.624;2023-07-29T02:01:07;5.5;;;2.3;;
49582;SDS011;36329;48.816;44.624;2023-07-29T02:04:09;5.9;;;2.1;;
49582;SDS011;36329;48.816;44.624;2023-07-29T02:07:11;4.5;;;2.4;;
49582;SDS011;36329;48.816;44.624;2023-07-29T02:10:13;5.7;;;2.4;;
49582;SDS011;36329;48.816;44.624;2023-07-29T02:13:15;5;;;2.2;;
49582;SDS011;36329;48.816;44.624;2023-07-29T02:16:17;5.4;;;2.1;;
49582;SDS011;36329;48.816;44.624;2023-07-29T02:19:19;4.3;;;2.4;;
49582;SDS011;36329;48.816;44.624;2023-07-29T02:22:21;7.4;;;2.7;;
49582;SDS011;36329;48.816;44.624;2023-07-29T02:25:23;4.9;;;1.8;;
49582;SDS011;36329;48.816;44.624;2023-07-29T02:28:25;4;;;1.4;;
49582;SDS011;36329;48.816;44.624;2023-07-29T02:31:28;7.1;;;4;;
49582;SDS011;36329;48.816;44.624;2023-07-29T02:34:30;3.7;;;1.5;;
49582;SDS011;36329;48.816;44.624;2023-07-29T02:37:33;5.6;;;1.8;;
49582;SDS011;36329;48.816;44.624;2023-07-29T02:40:34;4.6;;;2.5;;
49582;SDS011;36329;48.816;44.624;2023-07-29T02:43:36;3.1;;;2;;
49582;SDS011;36329;48.816;44.624;2023-07-29T02:46:38;3.8;;;1.7;;
49582;SDS011;36329;48.816;44.624;2023-07-29T02:49:40;4.6;;;2.1;;
49582;SDS011;36329;48.816;44.624;2023-07-29T02:52:42;3.2;;;1.6;;
49582;SDS011;36329;48.816;44.624;2023-07-29T02:55:44;4.2;;;1.6;;
49582;SDS011;36329;48.816;44.624;2023-07-29T02:58:46;4.3;;;1.5;;
49582;SDS011;36329;48.816;44.624;2023-07-29T03:01:48;3.3;;;1.2;;
49582;SDS011;36329;48.816;44.624;2023-07-29T03:04:50;4;;;1.2;;
49582;SDS011;36329;48.816;44.624;2023-07-29T03:07:53;3.4;;;1.1;;
49582;SDS011;36329;48.816;44.624;2023-07-29T03:10:56;4.6;;;1.3;;
49582;SDS011;36329;48.816;44.624;2023-07-29T03:13:58;5.4;;;1.1;;
49582;SDS011;36329;48.816;44.624;2023-07-29T03:17:02;4;;;1.1;;
49582;SDS011;36329;48.816;44.624;2023-07-29T03:20:04;2.1;;;1.4;;
49582;SDS011;36329;48.816;44.624;2023-07-29T03:23:07;3.3;;;1.1;;
49582;SDS011;36329;48.816;44.624;2023-07-29T03:26:09;2.9;;;1.2;;
49582;SDS011;36329;48.816;44.624;2023-07-29T03:29:11;4;;;1.2;;
49582;SDS011;36329;48.816;44.624;2023-07-29T03:32:14;3.3;;;1.1;;
49582;SDS011;36329;48.816;44.624;2023-07-29T03:35:16;4;;;1.1;;
49582;SDS011;36329;48.816;44.624;2023-07-29T03:38:19;5.8;;;1.3;;
49582;SDS011;36329;48.816;44.624;2023-07-29T03:41:21;6.2;;;1.5;;
49582;SDS011;36329;48.816;44.624;2023-07-29T03:44:23;6.5;;;1.3;;
49582;SDS011;36329;48.816;44.624;2023-07-29T03:47:25;4.1;;;1.3;;
49582;SDS011;36329;48.816;44.624;2023-07-29T03:50:28;3;;;1.3;;
49582;SDS011;36329;48.816;44.624;2023-07-29T03:53:30;4.6;;;1.4;;
49582;SDS011;36329;48.816;44.624;2023-07-29T03:56:32;3.8;;;1.4;;
49582;SDS011;36329;48.816;44.624;2023-07-29T03:59:34;3.1;;;1.2;;
49582;SDS011;36329;48.816;44.624;2023-07-29T04:02:36;3.6;;;1.3;;
49582;SDS011;36329;48.816;44.624;2023-07-29T04:05:38;7.1;;;1.5;;
49582;SDS011;36329;48.816;44.624;2023-07-29T04:08:40;2.4;;;1.1;;
49582;SDS011;36329;48.816;44.624;2023-07-29T04:11:42;4.4;;;1.3;;
49582;SDS011;36329;48.816;44.624;2023-07-29T04:14:45;4;;;1.3;;
49582;SDS011;36329;48.816;44.624;2023-07-29T04:17:47;6.2;;;1.4;;
49582;SDS011;36329;48.816;44.624;2023-07-29T04:20:48;2.4;;;1.2;;
49582;SDS011;36329;48.816;44.624;2023-07-29T04:23:50;4.7;;;1.3;;
49582;SDS011;36329;48.816;44.624;2023-07-29T04:26:52;4;;;1.4;;
49582;SDS011;36329;48.816;44.624;2023-07-29T04:29:55;4.7;;;1.3;;
49582;SDS011;36329;48.816;44.624;2023-07-29T04:32:57;3.6;;;1.3;;
49582;SDS011;36329;48.816;44.624;2023-07-29T04:35:59;3;;;1.3;;
49582;SDS011;36329;48.816;44.624;2023-07-29T04:39:01;3.2;;;1.2;;
49582;SDS011;36329;48.816;44.624;2023-07-29T04:42:04;3.4;;;1.3;;
49582;SDS011;36329;48.816;44.624;2023-07-29T04:45:06;3.4;;;1.3;;
49582;SDS011;36329;48.816;44.624;2023-07-29T04:48:08;3.9;;;1.2;;
49582;SDS011;36329;48.816;44.624;2023-07-29T04:51:10;4.7;;;1.4;;
49582;SDS011;36329;48.816;44.624;2023-07-29T04:54:12;5.2;;;1.4;;
49582;SDS011;36329;48.816;44.624;2023-07-29T04:57:14;4.8;;;1.4;;
49582;SDS011;36329;48.816;44.624;2023-07-29T05:00:16;3.7;;;1.4;;
49582;SDS011;36329;48.816;44.624;2023-07-29T05:03:18;3.9;;;1.4;;
49582;SDS011;36329;48.816;44.624;2023-07-29T05:06:20;6.8;;;1.4;;
49582;SDS011;36329;48.816;44.624;2023-07-29T05:09:23;3.9;;;1.3;;
49582;SDS011;36329;48.816;44.624;2023-07-29T05:12:25;2.8;;;1.2;;
49582;SDS011;36329;48.816;44.624;2023-07-29T05:15:27;4;;;1.5;;
49582;SDS011;36329;48.816;44.624;2023-07-29T05:18:29;4.6;;;1.4;;
49582;SDS011;36329;48.816;44.624;2023-07-29T05:21:31;2.5;;;1.1;;
49582;SDS011;36329;48.816;44.624;2023-07-29T05:24:33;3.3;;;1.1;;
49582;SDS011;36329;48.816;44.624;2023-07-29T05:27:35;4.6;;;1.1;;
49582;SDS011;36329;48.816;44.624;2023-07-29T05:30:37;4.6;;;1.2;;
49582;SDS011;36329;48.816;44.624;2023-07-29T05:33:40;3.4;;;1.3;;
49582;SDS011;36329;48.816;44.624;2023-07-29T05:36:42;2.8;;;1.2;;
49582;SDS011;36329;48.816;44.624;2023-07-29T05:39:44;3.6;;;1.3;;
49582;SDS011;36329;48.816;44.624;2023-07-29T05:42:47;2.5;;;1.2;;
49582;SDS011;36329;48.816;44.624;2023-07-29T05:45:49;3.5;;;1.3;;
49582;SDS011;36329;48.816;44.624;2023-07-29T05:48:51;5.1;;;1.3;;
49582;SDS011;36329;48.816;44.624;2023-07-29T05:51:53;3.5;;;1.2;;
49582;SDS011;36329;48.816;44.624;2023-07-29T05:54:56;2.7;;;1.2;;
49582;SDS011;36329;48.816;44.624;2023-07-29T05:57:59;3.7;;;1.3;;
49582;SDS011;36329;48.816;44.624;2023-07-29T06:01:06;4.4;;;1.1;;
49582;SDS011;36329;48.816;44.624;2023-07-29T06:04:08;2.6;;;1.3;;
49582;SDS011;36329;48.816;44.624;2023-07-29T06:07:10;3.9;;;1.2;;
49582;SDS011;36329;48.816;44.624;2023-07-29T06:10:13;2.2;;;1.1;;
49582;SDS011;36329;48.816;44.624;2023-07-29T06:13:16;2.3;;;1.2;;
49582;SDS011;36329;48.816;44.624;2023-07-29T06:16:18;4.4;;;1.2;;
49582;SDS011;36329;48.816;44.624;2023-07-29T06:19:20;4.8;;;1.2;;
49582;SDS011;36329;48.816;44.624;2023-07-29T06:22:22;2.5;;;1.4;;
49582;SDS011;36329;48.816;44.624;2023-07-29T06:25:24;3.1;;;1.4;;
49582;SDS011;36329;48.816;44.624;2023-07-29T06:28:26;2.7;;;1.2;;
49582;SDS011;36329;48.816;44.624;2023-07-29T06:31:29;2.7;;;1.1;;
49582;SDS011;36329;48.816;44.624;2023-07-29T06:34:31;3.3;;;1.2;;
49582;SDS011;36329;48.816;44.624;2023-07-29T06:37:34;2.7;;;1.1;;
49582;SDS011;36329;48.816;44.624;2023-07-29T06:40:36;1.9;;;1;;
49582;SDS011;36329;48.816;44.624;2023-07-29T06:43:38;3.6;;;1.1;;
49582;SDS011;36329;48.816;44.624;2023-07-29T06:46:41;2.6;;;1.4;;
49582;SDS011;36329;48.816;44.624;2023-07-29T06:49:45;2.7;;;1.3;;
49582;SDS011;36329;48.816;44.624;2023-07-29T06:52:48;4.8;;;1.3;;
49582;SDS011;36329;48.816;44.624;2023-07-29T06:55:50;3.7;;;1.4;;
49582;SDS011;36329;48.816;44.624;2023-07-29T06:58:52;4;;;1.7;;
49582;SDS011;36329;48.816;44.624;2023-07-29T07:01:54;3.8;;;1.4;;
49582;SDS011;36329;48.816;44.624;2023-07-29T07:04:57;3.3;;;1.5;;
49582;SDS011;36329;48.816;44.624;2023-07-29T07:07:59;3.6;;;1.3;;
49582;SDS011;36329;48.816;44.624;2023-07-29T07:11:01;4.6;;;1.2;;
49582;SDS011;36329;48.816;44.624;2023-07-29T07:14:03;1.9;;;1.1;;
49582;SDS011;36329;48.816;44.624;2023-07-29T07:17:05;2.9;;;1.5;;
49582;SDS011;36329;48.816;44.624;2023-07-29T07:20:07;2.6;;;1.1;;
49582;SDS011;36329;48.816;44.624;2023-07-29T07:23:09;1.9;;;1.2;;
49582;SDS011;36329;48.816;44.624;2023-07-29T07:26:11;2.8;;;1.4;;
49582;SDS011;36329;48.816;44.624;2023-07-29T07:29:14;4;;;1.8;;
49582;SDS011;36329;48.816;44.624;2023-07-29T07:32:17;2.6;;;1.7;;
49582;SDS011;36329;48.816;44.624;2023-07-29T07:35:19;5;;;1.9;;
49582;SDS011;36329;48.816;44.624;2023-07-29T07:38:21;3.4;;;2.1;;
49582;SDS011;36329;48.816;44.624;2023-07-29T07:41:23;2.6;;;1.8;;
49582;SDS011;36329;48.816;44.624;2023-07-29T07:44:25;4.1;;;2.3;;
49582;SDS011;36329;48.816;44.624;2023-07-29T07:47:27;6.4;;;2.3;;
49582;SDS011;36329;48.816;44.624;2023-07-29T07:50:29;6.1;;;2.5;;
49582;SDS011;36329;48.816;44.624;2023-07-29T07:53:31;4.5;;;2.8;;
49582;SDS011;36329;48.816;44.624;2023-07-29T07:56:33;4.8;;;2.8;;
49582;SDS011;36329;48.816;44.624;2023-07-29T07:59:36;5.7;;;2.8;;
49582;SDS011;36329;48.816;44.624;2023-07-29T08:02:38;7.3;;;3.1;;
49582;SDS011;36329;48.816;44.624;2023-07-29T08:05:41;8.3;;;3.2;;
49582;SDS011;36329;48.816;44.624;2023-07-29T08:08:43;5.7;;;3;;
49582;SDS011;36329;48.816;44.624;2023-07-29T08:11:45;8.5;;;3.3;;
49582;SDS011;36329;48.816;44.624;2023-07-29T08:14:47;6.2;;;3.3;;
49582;SDS011;36329;48.816;44.624;2023-07-29T08:17:49;6;;;3.2;;
49582;SDS011;36329;48.816;44.624;2023-07-29T08:20:51;4.7;;;3.1;;
49582;SDS011;36329;48.816;44.624;2023-07-29T08:23:53;4.5;;;3.3;;
49582;SDS011;36329;48.816;44.624;2023-07-29T08:26:56;4;;;3.3;;
49582;SDS011;36329;48.816;44.624;2023-07-29T08:29:58;6.7;;;3.3;;
49582;SDS011;36329;48.816;44.624;2023-07-29T08:33:01;4.6;;;3.2;;
49582;SDS011;36329;48.816;44.624;2023-07-29T08:36:04;6.4;;;3.1;;
49582;SDS011;36329;48.816;44.624;2023-07-29T08:39:06;4.1;;;3;;
49582;SDS011;36329;48.816;44.624;2023-07-29T08:42:08;4.5;;;2.8;;
49582;SDS011;36329;48.816;44.624;2023-07-29T08:45:13;6.5;;;3.7;;
49582;SDS011;36329;48.816;44.624;2023-07-29T08:48:17;5.8;;;3.3;;
49582;SDS011;36329;48.816;44.624;2023-07-29T08:51:24;6.1;;;4.2;;
49582;SDS011;36329;48.816;44.624;2023-07-29T08:54:28;5.9;;;3.1;;
49582;SDS011;36329;48.816;44.624;2023-07-29T08:57:30;5;;;3;;
49582;SDS011;36329;48.816;44.624;2023-07-29T09:00:33;9.2;;;6;;
49582;SDS011;36329;48.816;44.624;2023-07-29T09:03:36;6.1;;;3.6;;
49582;SDS011;36329;48.816;44.624;2023-07-29T09:06:39;7.9;;;4.8;;
49582;SDS011;36329;48.816;44.624;2023-07-29T09:09:41;6;;;3.5;;
49582;SDS011;36329;48.816;44.624;2023-07-29T09:12:43;6.7;;;3.3;;
49582;SDS011;36329;48.816;44.624;2023-07-29T09:15:45;7.9;;;3.4;;
49582;SDS011;36329;48.816;44.624;2023-07-29T09:18:48;6.1;;;2.8;;
49582;SDS011;36329;48.816;44.624;2023-07-29T09:21:50;7.4;;;2.8;;
49582;SDS011;36329;48.816;44.624;2023-07-29T09:24:52;7.4;;;3;;
49582;SDS011;36329;48.816;44.624;2023-07-29T09:27:58;7.7;;;2.9;;
49582;SDS011;36329;48.816;44.624;2023-07-29T09:31:03;5.3;;;2.3;;
49582;SDS011;36329;48.816;44.624;2023-07-29T09:34:06;5.3;;;2.6;;
49582;SDS011;36329;48.816;44.624;2023-07-29T09:37:08;6.1;;;2.4;;
49582;SDS011;36329;48.816;44.624;2023-07-29T09:40:13;6.1;;;2.7;;
49582;SDS011;36329;48.816;44.624;2023-07-29T09:43:16;5.4;;;2.4;;
49582;SDS011;36329;48.816;44.624;2023-07-29T09:46:18;5.7;;;2.5;;
49582;SDS011;36329;48.816;44.624;2023-07-29T09:49:26;4.4;;;2.3;;
49582;SDS011;36329;48.816;44.624;2023-07-29T09:52:28;4.7;;;2.3;;
49582;SDS011;36329;48.816;44.624;2023-07-29T09:55:32;3.6;;;2.1;;
49582;SDS011;36329;48.816;44.624;2023-07-29T09:58:35;2.9;;;2;;
49582;SDS011;36329;48.816;44.624;2023-07-29T10:01:39;3.6;;;1.8;;
49582;SDS011;36329;48.816;44.624;2023-07-29T10:04:41;4.4;;;1.8;;
49582;SDS011;36329;48.816;44.624;2023-07-29T10:07:45;6.5;;;1.7;;
49582;SDS011;36329;48.816;44.624;2023-07-29T10:10:49;5.8;;;1.9;;
49582;SDS011;36329;48.816;44.624;2023-07-29T10:13:52;2.9;;;1.7;;
49582;SDS011;36329;48.816;44.624;2023-07-29T10:16:55;3.5;;;1.8;;
49582;SDS011;36329;48.816;44.624;2023-07-29T10:19:58;3.8;;;1.9;;
49582;SDS011;36329;48.816;44.624;2023-07-29T10:23:00;3.5;;;1.6;;
49582;SDS011;36329;48.816;44.624;2023-07-29T10:26:10;2;;;1.4;;
49582;SDS011;36329;48.816;44.624;2023-07-29T10:29:13;2.6;;;1.4;;
49582;SDS011;36329;48.816;44.624;2023-07-29T10:32:16;2.8;;;1.4;;
49582;SDS011;36329;48.816;44.624;2023-07-29T10:35:19;3.7;;;1.4;;
49582;SDS011;36329;48.816;44.624;2023-07-29T10:38:21;2.7;;;1.6;;
49582;SDS011;36329;48.816;44.624;2023-07-29T10:41:29;4.5;;;1.6;;
49582;SDS011;36329;48.816;44.624;2023-07-29T10:51:43;5.8;;;1.8;;
49582;SDS011;36329;48.816;44.624;2023-07-29T10:54:46;3;;;1.6;;
49582;SDS011;36329;48.816;44.624;2023-07-29T10:57:49;4.8;;;1.8;;
49582;SDS011;36329;48.816;44.624;2023-07-29T11:00:51;5.9;;;2;;
49582;SDS011;36329;48.816;44.624;2023-07-29T11:04:01;4.7;;;2;;
49582;SDS011;36329;48.816;44.624;2023-07-29T11:07:22;6.7;;;2.1;;
49582;SDS011;36329;48.816;44.624;2023-07-29T11:10:25;6.4;;;2.5;;
49582;SDS011;36329;48.816;44.624;2023-07-29T11:13:27;8.9;;;3;;
49582;SDS011;36329;48.816;44.624;2023-07-29T11:16:30;8.2;;;2.5;;
49582;SDS011;36329;48.816;44.624;2023-07-29T11:19:32;4.2;;;2.5;;
49582;SDS011;36329;48.816;44.624;2023-07-29T11:22:36;6.5;;;2.5;;
49582;SDS011;36329;48.816;44.624;2023-07-29T11:25:39;6.5;;;2.4;;
49582;SDS011;36329;48.816;44.624;2023-07-29T11:28:41;3.8;;;2.2;;
49582;SDS011;36329;48.816;44.624;2023-07-29T11:31:43;4.6;;;2.3;;
49582;SDS011;36329;48.816;44.624;2023-07-29T11:34:45;3.1;;;2.1;;
49582;SDS011;36329;48.816;44.624;2023-07-29T11:37:47;6.3;;;2.4;;
49582;SDS011;36329;48.816;44.624;2023-07-29T11:40:54;3.6;;;2;;
49582;SDS011;36329;48.816;44.624;2023-07-29T11:43:58;5.3;;;2.3;;
49582;SDS011;36329;48.816;44.624;2023-07-29T11:47:00;7.5;;;2.4;;
49582;SDS011;36329;48.816;44.624;2023-07-29T11:50:03;6.8;;;2.2;;
49582;SDS011;36329;48.816;44.624;2023-07-29T11:53:06;6.9;;;2.2;;
49582;SDS011;36329;48.816;44.624;2023-07-29T11:56:08;4.3;;;2;;
49582;SDS011;36329;48.816;44.624;2023-07-29T11:59:10;4.3;;;1.8;;
49582;SDS011;36329;48.816;44.624;2023-07-29T12:02:13;5.2;;;2.1;;
49582;SDS011;36329;48.816;44.624;2023-07-29T12:05:17;4.4;;;2.1;;
49582;SDS011;36329;48.816;44.624;2023-07-29T12:08:20;5.3;;;2.2;;
49582;SDS011;36329;48.816;44.624;2023-07-29T12:11:22;3.5;;;1.5;;
49582;SDS011;36329;48.816;44.624;2023-07-29T12:14:25;5.3;;;1.9;;
49582;SDS011;36329;48.816;44.624;2023-07-29T12:17:27;7.3;;;1.9;;
49582;SDS011;36329;48.816;44.624;2023-07-29T12:20:29;4.7;;;1.8;;
49582;SDS011;36329;48.816;44.624;2023-07-29T12:23:32;4.4;;;1.7;;
49582;SDS011;36329;48.816;44.624;2023-07-29T12:26:35;4.9;;;1.8;;
49582;SDS011;36329;48.816;44.624;2023-07-29T12:29:40;2.9;;;1.8;;
49582;SDS011;36329;48.816;44.624;2023-07-29T12:32:43;3.7;;;1.8;;
49582;SDS011;36329;48.816;44.624;2023-07-29T12:35:45;4.9;;;1.8;;
49582;SDS011;36329;48.816;44.624;2023-07-29T12:38:47;2.4;;;1.4;;
49582;SDS011;36329;48.816;44.624;2023-07-29T12:41:49;5.1;;;1.5;;
49582;SDS011;36329;48.816;44.624;2023-07-29T12:44:53;3.6;;;1.6;;
49582;SDS011;36329;48.816;44.624;2023-07-29T12:47:55;2.3;;;1.5;;
49582;SDS011;36329;48.816;44.624;2023-07-29T12:50:57;5.8;;;1.8;;
49582;SDS011;36329;48.816;44.624;2023-07-29T12:53:59;4.1;;;1.5;;
49582;SDS011;36329;48.816;44.624;2023-07-29T12:57:02;6.9;;;1.9;;
49582;SDS011;36329;48.816;44.624;2023-07-29T13:00:04;4.7;;;1.8;;
49582;SDS011;36329;48.816;44.624;2023-07-29T13:03:08;4.5;;;1.9;;
49582;SDS011;36329;48.816;44.624;2023-07-29T13:06:10;3.2;;;1.7;;
49582;SDS011;36329;48.816;44.624;2023-07-29T13:09:12;3.4;;;1.6;;
49582;SDS011;36329;48.816;44.624;2023-07-29T13:12:14;4;;;1.8;;
49582;SDS011;36329;48.816;44.624;2023-07-29T13:15:17;2.8;;;1.6;;
49582;SDS011;36329;48.816;44.624;2023-07-29T13:18:19;4.3;;;1.8;;
49582;SDS011;36329;48.816;44.624;2023-07-29T13:21:23;4.2;;;1.7;;
49582;SDS011;36329;48.816;44.624;2023-07-29T13:24:25;2.8;;;1.6;;
49582;SDS011;36329;48.816;44.624;2023-07-29T13:27:27;3.4;;;1.5;;
49582;SDS011;36329;48.816;44.624;2023-07-29T13:30:29;5;;;1.7;;
49582;SDS011;36329;48.816;44.624;2023-07-29T13:33:32;3.3;;;1.6;;
49582;SDS011;36329;48.816;44.624;2023-07-29T13:36:34;2.1;;;1.6;;
49582;SDS011;36329;48.816;44.624;2023-07-29T13:39:36;4;;;1.2;;
49582;SDS011;36329;48.816;44.624;2023-07-29T13:42:38;2.1;;;1.4;;
49582;SDS011;36329;48.816;44.624;2023-07-29T13:45:40;2.3;;;1.6;;
49582;SDS011;36329;48.816;44.624;2023-07-29T13:48:42;2.2;;;1.4;;
49582;SDS011;36329;48.816;44.624;2023-07-29T13:51:44;4.1;;;1.6;;
49582;SDS011;36329;48.816;44.624;2023-07-29T13:54:46;2.7;;;1.7;;
49582;SDS011;36329;48.816;44.624;2023-07-29T13:57:48;6.6;;;4.6;;
49582;SDS011;36329;48.816;44.624;2023-07-29T14:00:50;3.3;;;1.6;;
49582;SDS011;36329;48.816;44.624;2023-07-29T14:03:52;3.3;;;1.4;;
49582;SDS011;36329;48.816;44.624;2023-07-29T14:06:54;1.9;;;1.5;;
49582;SDS011;36329;48.816;44.624;2023-07-29T14:09:56;1.9;;;1.4;;
49582;SDS011;36329;48.816;44.624;2023-07-29T14:12:58;2.6;;;1.6;;
49582;SDS011;36329;48.816;44.624;2023-07-29T14:16:00;1.9;;;1.6;;
49582;SDS011;36329;48.816;44.624;2023-07-29T14:19:03;3.2;;;1.5;;
49582;SDS011;36329;48.816;44.624;2023-07-29T14:22:05;2.7;;;1.4;;
49582;SDS011;36329;48.816;44.624;2023-07-29T14:25:07;5;;;1.7;;
49582;SDS011;36329;48.816;44.624;2023-07-29T14:28:09;3.1;;;1.4;;
49582;SDS011;36329;48.816;44.624;2023-07-29T14:31:11;3.1;;;1.5;;
49582;SDS011;36329;48.816;44.624;2023-07-29T14:34:13;2.4;;;1.4;;
49582;SDS011;36329;48.816;44.624;2023-07-29T14:37:15;2.6;;;1.6;;
49582;SDS011;36329;48.816;44.624;2023-07-29T14:40:17;2.9;;;1.5;;
49582;SDS011;36329;48.816;44.624;2023-07-29T14:43:19;2.5;;;1.6;;
49582;SDS011;36329;48.816;44.624;2023-07-29T14:46:21;3.6;;;1.6;;
49582;SDS011;36329;48.816;44.624;2023-07-29T14:49:24;2;;;1.2;;
49582;SDS011;36329;48.816;44.624;2023-07-29T14:52:26;3.7;;;1.3;;
49582;SDS011;36329;48.816;44.624;2023-07-29T14:55:28;4.6;;;1.4;;
49582;SDS011;36329;48.816;44.624;2023-07-29T14:58:30;4.8;;;1.3;;
49582;SDS011;36329;48.816;44.624;2023-07-29T15:01:32;1.7;;;1.1;;
49582;SDS011;36329;48.816;44.624;2023-07-29T15:04:34;1.8;;;1.2;;
49582;SDS011;36329;48.816;44.624;2023-07-29T15:07:36;4.1;;;1.3;;
49582;SDS011;36329;48.816;44.624;2023-07-29T15:10:38;2.6;;;1.1;;
49582;SDS011;36329;48.816;44.624;2023-07-29T15:13:39;3.6;;;1.8;;
49582;SDS011;36329;48.816;44.624;2023-07-29T15:16:42;3.7;;;1.4;;
49582;SDS011;36329;48.816;44.624;2023-07-29T15:19:44;2.3;;;0.9;;
49582;SDS011;36329;48.816;44.624;2023-07-29T15:22:46;2.7;;;1;;
49582;SDS011;36329;48.816;44.624;2023-07-29T15:25:48;1.7;;;1.1;;
49582;SDS011;36329;48.816;44.624;2023-07-29T15:28:50;2.9;;;1.3;;
49582;SDS011;36329;48.816;44.624;2023-07-29T15:31:52;3;;;1;;
49582;SDS011;36329;48.816;44.624;2023-07-29T15:34:54;1.9;;;1.3;;
49582;SDS011;36329;48.816;44.624;2023-07-29T15:37:56;3.6;;;1.1;;
49582;SDS011;36329;48.816;44.624;2023-07-29T15:40:58;2.7;;;1.1;;
49582;SDS011;36329;48.816;44.624;2023-07-29T15:44:00;2.4;;;1.2;;
49582;SDS011;36329;48.816;44.624;2023-07-29T15:47:02;4.9;;;1.3;;
49582;SDS011;36329;48.816;44.624;2023-07-29T15:50:05;2.3;;;1;;
49582;SDS011;36329;48.816;44.624;2023-07-29T15:53:08;2.7;;;1.1;;
49582;SDS011;36329;48.816;44.624;2023-07-29T15:56:10;2.5;;;1.2;;
49582;SDS011;36329;48.816;44.624;2023-07-29T15:59:11;1.5;;;1.2;;
49582;SDS011;36329;48.816;44.624;2023-07-29T16:02:13;2.7;;;1.1;;
49582;SDS011;36329;48.816;44.624;2023-07-29T16:05:15;1.7;;;1.4;;
49582;SDS011;36329;48.816;44.624;2023-07-29T16:08:17;2.6;;;1.2;;
49582;SDS011;36329;48.816;44.624;2023-07-29T16:11:19;3.6;;;1.2;;
49582;SDS011;36329;48.816;44.624;2023-07-29T16:14:21;2.4;;;1.1;;
49582;SDS011;36329;48.816;44.624;2023-07-29T16:17:23;1.9;;;1.2;;
49582;SDS011;36329;48.816;44.624;2023-07-29T16:20:26;4.2;;;1.3;;
49582;SDS011;36329;48.816;44.624;2023-07-29T16:23:28;5.7;;;1.2;;
49582;SDS011;36329;48.816;44.624;2023-07-29T16:26:30;1.8;;;1;;
49582;SDS011;36329;48.816;44.624;2023-07-29T16:29:32;1.9;;;1.1;;
49582;SDS011;36329;48.816;44.624;2023-07-29T16:32:33;2.4;;;1.1;;
49582;SDS011;36329;48.816;44.624;2023-07-29T16:35:36;3.6;;;1.2;;
49582;SDS011;36329;48.816;44.624;2023-07-29T16:38:37;2.1;;;1.1;;
49582;SDS011;36329;48.816;44.624;2023-07-29T16:41:39;2;;;1.1;;
49582;SDS011;36329;48.816;44.624;2023-07-29T16:44:42;1.6;;;1;;
49582;SDS011;36329;48.816;44.624;2023-07-29T16:47:44;2.4;;;1;;
49582;SDS011;36329;48.816;44.624;2023-07-29T16:50:46;1.9;;;0.9;;
49582;SDS011;36329;48.816;44.624;2023-07-29T16:53:48;2.8;;;1;;
49582;SDS011;36329;48.816;44.624;2023-07-29T16:56:50;3.4;;;1.1;;
49582;SDS011;36329;48.816;44.624;2023-07-29T16:59:52;1.8;;;0.8;;
49582;SDS011;36329;48.816;44.624;2023-07-29T17:02:55;2.9;;;1;;
49582;SDS011;36329;48.816;44.624;2023-07-29T17:05:56;1.9;;;0.8;;
49582;SDS011;36329;48.816;44.624;2023-07-29T17:08:59;5.4;;;1.1;;
49582;SDS011;36329;48.816;44.624;2023-07-29T17:12:01;4.4;;;1;;
49582;SDS011;36329;48.816;44.624;2023-07-29T17:15:03;2.9;;;1.2;;
49582;SDS011;36329;48.816;44.624;2023-07-29T17:18:07;2.3;;;1;;
49582;SDS011;36329;48.816;44.624;2023-07-29T17:21:09;2.3;;;1;;
49582;SDS011;36329;48.816;44.624;2023-07-29T17:24:11;3.1;;;0.9;;
49582;SDS011;36329;48.816;44.624;2023-07-29T17:27:13;2.6;;;0.9;;
49582;SDS011;36329;48.816;44.624;2023-07-29T17:30:15;1.2;;;0.8;;
49582;SDS011;36329;48.816;44.624;2023-07-29T17:33:17;2.5;;;0.8;;
49582;SDS011;36329;48.816;44.624;2023-07-29T17:36:19;4.3;;;0.9;;
49582;SDS011;36329;48.816;44.624;2023-07-29T17:39:21;2.8;;;0.7;;
49582;SDS011;36329;48.816;44.624;2023-07-29T17:42:23;4.5;;;0.8;;
49582;SDS011;36329;48.816;44.624;2023-07-29T17:45:25;7.7;;;0.8;;
49582;SDS011;36329;48.816;44.624;2023-07-29T17:48:27;3.1;;;0.7;;
49582;SDS011;36329;48.816;44.624;2023-07-29T17:51:29;2.1;;;0.7;;
49582;SDS011;36329;48.816;44.624;2023-07-29T17:54:32;4.9;;;0.9;;
49582;SDS011;36329;48.816;44.624;2023-07-29T17:57:34;2.6;;;0.6;;
49582;SDS011;36329;48.816;44.624;2023-07-29T18:00:36;3.7;;;1;;
49582;SDS011;36329;48.816;44.624;2023-07-29T18:03:38;1.9;;;0.9;;
49582;SDS011;36329;48.816;44.624;2023-07-29T18:06:40;1.7;;;1;;
49582;SDS011;36329;48.816;44.624;2023-07-29T18:09:42;3.7;;;0.8;;
49582;SDS011;36329;48.816;44.624;2023-07-29T18:12:43;4.1;;;1.5;;
49582;SDS011;36329;48.816;44.624;2023-07-29T18:15:46;1.3;;;0.7;;
49582;SDS011;36329;48.816;44.624;2023-07-29T18:18:51;3.4;;;0.9;;
49582;SDS011;36329;48.816;44.624;2023-07-29T18:21:53;3.2;;;1.4;;
49582;SDS011;36329;48.816;44.624;2023-07-29T18:24:55;2;;;1.1;;
49582;SDS011;36329;48.816;44.624;2023-07-29T18:27:57;3.7;;;1.4;;
49582;SDS011;36329;48.816;44.624;2023-07-29T18:30:59;5.4;;;2.6;;
49582;SDS011;36329;48.816;44.624;2023-07-29T18:34:01;6.7;;;2.9;;
49582;SDS011;36329;48.816;44.624;2023-07-29T18:37:04;5.1;;;2.5;;
49582;SDS011;36329;48.816;44.624;2023-07-29T18:40:06;3.4;;;1.5;;
49582;SDS011;36329;48.816;44.624;2023-07-29T18:43:09;2.7;;;1.2;;
49582;SDS011;36329;48.816;44.624;2023-07-29T18:46:11;5.6;;;1.1;;
49582;SDS011;36329;48.816;44.624;2023-07-29T18:49:13;2;;;0.9;;